Pagina principale
METAR-TAF:

METAR-TAF

Aeroporti :

Pruniers

Romorantin, Francia

latitudine: 47-19N, longitudine: 001-41E, altezza: 85 m

Osservazione

Il bollettino è stato emesso 20 minuti fa, alle 10:30 UTC
Vento 15 kt da ovest/sud-ovest, variando fra sud/sud-ovest e ovest
Temperature 9°C
Umidità 66%
Pressione 1009 hPa
Visibilità 10 km o più
Nuvoloso ad un'altezza di 2900 ft
Cielo coperto ad un'altezza di 11000 ft

METAR: LFYR 281030Z AUTO 24015KT 210V280 9999 BKN029 OVC110 09/03 Q1009 TEMPO 25020G35KT 3000 TSRA BKN020CB

Ora: 11:50 (10:50 UTC)


TAF: mancante

Osservazioni e previsioni meteorologiche di più di 4000 aeroporti (messaggi METAR e TAF).

Le stazioni disponibili sono rappresentate dai dischi gialli e rossi sulla carta.

Puntare il mouse per vedere il nome della stazione.

Clicca sopra per visualizzare le osservazioni e previsioni meteorologiche.

Per cambiare la mappa : fare clic sui pulsanti verdi con una croce nera per ingrandire, il pulsante verde con un trattino per diminuire, o sulla freccia verde per le mappe adiacenti.


METAR-TAF: